createdAt,value
2018-04-27T00:00:27.181Z,68.30
2018-04-27T00:02:53.757Z,68.70
2018-04-27T00:05:20.033Z,68.70
2018-04-27T00:07:46.277Z,68.80
2018-04-27T00:10:12.848Z,69.00
2018-04-27T00:12:39.048Z,69.00
2018-04-27T00:15:05.289Z,68.90
2018-04-27T00:17:31.542Z,69.10
2018-04-27T00:19:57.752Z,68.20
2018-04-27T00:22:24.760Z,68.30
2018-04-27T00:24:50.956Z,68.70
2018-04-27T00:27:17.222Z,69.00
2018-04-27T00:29:43.471Z,69.30
2018-04-27T00:32:09.675Z,69.90
2018-04-27T00:34:35.885Z,69.90
2018-04-27T00:37:02.102Z,69.80
2018-04-27T00:39:28.310Z,70.30
2018-04-27T00:41:54.532Z,70.60
2018-04-27T00:44:27.763Z,70.40
2018-04-27T00:46:54.936Z,70.60
2018-04-27T00:49:21.168Z,70.80
2018-04-27T00:51:47.725Z,70.10
2018-04-27T00:54:13.957Z,70.10
2018-04-27T00:56:40.181Z,71.10
2018-04-27T00:59:06.375Z,70.90
2018-04-27T01:01:32.592Z,71.10
2018-04-27T01:03:58.801Z,71.10
2018-04-27T01:06:25.009Z,70.40
2018-04-27T01:08:51.239Z,70.10
2018-04-27T01:11:17.435Z,70.60
2018-04-27T01:13:43.983Z,71.40
2018-04-27T01:16:10.232Z,71.40
2018-04-27T01:18:36.447Z,71.70
2018-04-27T01:21:02.675Z,72.10
2018-04-27T01:23:28.932Z,72.00
2018-04-27T01:25:55.145Z,71.80
2018-04-27T01:28:21.347Z,71.40
2018-04-27T01:30:47.556Z,71.20
2018-04-27T01:33:13.762Z,70.50
2018-04-27T01:35:40.616Z,70.30
2018-04-27T01:38:08.487Z,71.10
2018-04-27T01:40:37.376Z,71.00
2018-04-27T01:43:04.370Z,71.10
2018-04-27T01:45:32.714Z,72.30
2018-04-27T01:48:00.325Z,72.80
2018-04-27T01:50:27.677Z,72.90
2018-04-27T01:52:53.895Z,72.80
2018-04-27T01:55:20.143Z,72.20
2018-04-27T01:57:46.392Z,72.20
2018-04-27T02:00:12.621Z,72.60
2018-04-27T02:02:38.826Z,72.50
2018-04-27T02:05:05.084Z,72.50
2018-04-27T02:07:31.650Z,72.90
2018-04-27T02:09:57.833Z,72.90
2018-04-27T02:12:24.073Z,73.00
2018-04-27T02:14:50.280Z,73.10
2018-04-27T02:17:16.495Z,73.00
2018-04-27T02:19:43.582Z,73.20
2018-04-27T02:22:09.792Z,73.30
2018-04-27T02:24:36.012Z,73.40
2018-04-27T02:27:02.232Z,73.30
2018-04-27T02:29:28.456Z,73.00
2018-04-27T02:31:54.653Z,72.60
2018-04-27T02:34:20.884Z,71.80
2018-04-27T02:36:47.104Z,72.60
2018-04-27T02:39:13.293Z,73.00
2018-04-27T02:41:39.495Z,72.20
2018-04-27T02:44:05.736Z,72.40
2018-04-27T02:46:31.953Z,72.10
2018-04-27T02:48:58.149Z,71.80
2018-04-27T02:51:24.374Z,72.00
2018-04-27T02:53:50.598Z,71.20
2018-04-27T02:56:16.820Z,71.60
2018-04-27T02:58:43.038Z,72.20
2018-04-27T03:01:09.219Z,71.90
2018-04-27T03:03:35.420Z,72.10
2018-04-27T03:06:01.661Z,72.20
2018-04-27T03:08:27.861Z,72.00
2018-04-27T03:10:54.074Z,72.20
2018-04-27T03:13:20.662Z,71.50
2018-04-27T03:15:46.902Z,71.50
2018-04-27T03:18:13.090Z,71.50
2018-04-27T03:20:39.324Z,71.00
2018-04-27T03:23:05.523Z,71.00
2018-04-27T03:25:31.837Z,71.30
2018-04-27T03:27:58.422Z,71.60
2018-04-27T03:30:24.650Z,71.60
2018-04-27T03:32:51.613Z,71.70
2018-04-27T03:35:17.839Z,71.60
2018-04-27T03:37:44.047Z,71.40
2018-04-27T03:40:10.238Z,71.50
2018-04-27T03:42:36.809Z,72.40
2018-04-27T03:45:03.039Z,72.40
2018-04-27T03:47:29.237Z,72.40
2018-04-27T03:49:55.512Z,72.50
2018-04-27T03:52:21.735Z,72.40
2018-04-27T03:54:47.947Z,72.20
2018-04-27T03:57:14.164Z,71.50
2018-04-27T03:59:52.695Z,71.50
2018-04-27T04:02:31.062Z,71.30
2018-04-27T04:05:09.827Z,71.90
2018-04-27T04:07:36.048Z,71.90
2018-04-27T04:10:02.271Z,71.80
2018-04-27T04:12:28.492Z,72.10
2018-04-27T04:14:54.725Z,72.00
2018-04-27T04:17:20.947Z,71.90
2018-04-27T04:19:47.170Z,72.00
2018-04-27T04:22:13.763Z,71.70
2018-04-27T04:24:39.963Z,71.70
2018-04-27T04:27:06.197Z,72.10
2018-04-27T04:29:32.440Z,72.00
2018-04-27T04:31:58.648Z,71.60
2018-04-27T04:34:24.836Z,71.70
2018-04-27T04:36:51.070Z,71.80
2018-04-27T04:39:18.567Z,71.90
2018-04-27T04:41:44.803Z,71.90
2018-04-27T04:44:11.054Z,72.00
2018-04-27T04:46:37.269Z,72.10
2018-04-27T04:49:03.567Z,72.00
2018-04-27T04:51:29.813Z,72.00
2018-04-27T04:53:56.032Z,72.00
2018-04-27T04:56:22.240Z,71.70
2018-04-27T04:58:48.525Z,71.30
2018-04-27T05:01:14.741Z,70.90
2018-04-27T05:03:40.966Z,70.60
2018-04-27T05:06:07.235Z,70.70
2018-04-27T05:08:33.456Z,70.80
2018-04-27T05:10:59.676Z,71.20
2018-04-27T05:13:25.921Z,70.80
2018-04-27T05:15:52.149Z,70.40
2018-04-27T05:31:42.890Z,68.30
2018-04-27T05:34:09.109Z,67.50
2018-04-27T05:36:35.340Z,67.60
2018-04-27T05:39:01.578Z,67.00
2018-04-27T05:41:27.862Z,67.40
2018-04-27T05:43:54.108Z,67.30
2018-04-27T05:46:20.411Z,66.70
2018-04-27T05:48:46.672Z,67.30
2018-04-27T05:51:12.922Z,67.60
2018-04-27T05:53:39.176Z,67.70
2018-04-27T05:56:05.457Z,68.00
2018-04-27T05:58:31.715Z,68.30
2018-04-27T06:00:57.954Z,67.40
2018-04-27T06:03:24.210Z,68.10
2018-04-27T06:05:51.193Z,68.20
2018-04-27T06:08:17.473Z,67.90
2018-04-27T06:10:43.724Z,68.30
2018-04-27T06:13:10.636Z,68.80
2018-04-27T06:15:36.895Z,67.70
2018-04-27T06:18:03.486Z,67.80
2018-04-27T06:20:29.765Z,67.80
2018-04-27T06:23:02.910Z,67.20
2018-04-27T06:25:29.161Z,66.80
2018-04-27T06:27:55.810Z,66.90
2018-04-27T06:30:22.408Z,67.00
2018-04-27T06:32:48.668Z,67.00
2018-04-27T06:35:15.285Z,66.60
2018-04-27T06:37:41.519Z,66.60
2018-04-27T06:40:08.133Z,66.10
2018-04-27T06:42:34.403Z,66.10
2018-04-27T06:45:01.023Z,65.10
2018-04-27T06:47:27.278Z,65.10
2018-04-27T06:49:53.509Z,65.60
2018-04-27T06:52:19.753Z,66.20
2018-04-27T06:54:45.996Z,67.20
2018-04-27T06:57:12.227Z,66.80
2018-04-27T06:59:38.474Z,65.50
2018-04-27T07:02:04.720Z,64.90
2018-04-27T07:17:16.323Z,61.70
2018-04-27T07:19:42.552Z,62.30
2018-04-27T07:22:08.807Z,62.40
2018-04-27T07:24:35.069Z,62.70
2018-04-27T07:27:01.335Z,62.90
2018-04-27T07:29:27.629Z,62.10
2018-04-27T07:31:53.870Z,60.20
2018-04-27T07:34:20.142Z,60.80
2018-04-27T07:36:46.981Z,61.00
2018-04-27T07:39:13.219Z,61.70
2018-04-27T07:41:39.500Z,62.20
2018-04-27T07:44:06.119Z,61.50
2018-04-27T07:46:32.391Z,61.50
2018-04-27T07:48:58.682Z,61.00
2018-04-27T07:51:25.000Z,60.60
2018-04-27T07:53:51.208Z,60.40
2018-04-27T07:56:17.450Z,60.90
2018-04-27T07:58:43.692Z,61.10
2018-04-27T08:01:09.922Z,60.10
2018-04-27T08:03:36.179Z,60.10
2018-04-27T08:06:02.829Z,59.00
2018-04-27T08:08:29.098Z,58.90
2018-04-27T08:10:55.371Z,57.60
2018-04-27T08:13:21.650Z,56.50
2018-04-27T08:15:47.897Z,56.50
2018-04-27T08:18:14.178Z,56.50
2018-04-27T08:20:40.455Z,56.50
2018-04-27T08:23:06.749Z,55.40
2018-04-27T08:25:34.056Z,57.00
2018-04-27T08:28:00.225Z,57.10
2018-04-27T08:30:27.495Z,56.20
2018-04-27T08:32:53.773Z,57.20
2018-04-27T08:35:20.385Z,55.10
2018-04-27T08:37:46.621Z,55.10
2018-04-27T08:40:12.889Z,56.30
2018-04-27T08:42:39.143Z,57.60
2018-04-27T08:45:06.264Z,57.70
2018-04-27T08:47:32.526Z,57.40
2018-04-27T08:49:58.773Z,56.20
2018-04-27T08:52:25.028Z,55.60
2018-04-27T08:54:51.678Z,55.10
2018-04-27T08:57:17.915Z,55.10
2018-04-27T08:59:44.179Z,55.90
2018-04-27T09:02:10.441Z,55.90
2018-04-27T09:04:36.661Z,54.30
2018-04-27T09:07:02.907Z,55.00
2018-04-27T09:09:29.529Z,55.10
2018-04-27T09:11:55.742Z,55.20
2018-04-27T09:14:22.755Z,55.50
2018-04-27T09:16:49.031Z,56.20
2018-04-27T09:19:15.282Z,54.40
2018-04-27T09:21:41.568Z,55.80
2018-04-27T09:24:07.792Z,56.10
2018-04-27T09:26:34.029Z,53.40
2018-04-27T09:29:00.252Z,53.20
2018-04-27T09:31:26.527Z,53.60
2018-04-27T09:33:53.584Z,54.20
2018-04-27T09:36:20.203Z,52.70
2018-04-27T09:38:46.490Z,52.70
2018-04-27T09:41:12.730Z,51.90
2018-04-27T09:43:38.954Z,54.70
2018-04-27T09:46:05.248Z,52.80
2018-04-27T09:48:31.498Z,52.70
2018-04-27T09:50:57.746Z,51.90
2018-04-27T09:53:23.985Z,50.90
2018-04-27T09:55:50.198Z,50.80
2018-04-27T09:58:16.407Z,51.40
2018-04-27T10:00:42.664Z,49.90
2018-04-27T10:03:08.881Z,51.40
2018-04-27T10:05:35.089Z,52.10
2018-04-27T10:08:01.349Z,51.00
2018-04-27T10:10:34.564Z,52.20
2018-04-27T10:13:01.190Z,51.00
2018-04-27T10:15:27.457Z,51.00
2018-04-27T10:17:53.684Z,52.00
2018-04-27T10:20:19.936Z,50.20
2018-04-27T10:22:46.151Z,50.00
2018-04-27T10:25:12.404Z,51.40
2018-04-27T10:27:38.648Z,50.70
2018-04-27T10:30:04.911Z,51.40
2018-04-27T10:32:31.167Z,49.70
2018-04-27T10:34:57.391Z,48.70
2018-04-27T10:37:23.633Z,47.50
2018-04-27T10:39:49.879Z,49.80
2018-04-27T10:42:16.446Z,49.70
2018-04-27T10:44:43.453Z,48.60
2018-04-27T10:47:09.695Z,46.60
2018-04-27T10:49:35.938Z,49.50
2018-04-27T10:52:02.200Z,47.80
2018-04-27T10:54:28.441Z,44.70
2018-04-27T10:56:54.719Z,45.20
2018-04-27T10:59:20.970Z,40.70
2018-04-27T11:01:47.609Z,35.80
2018-04-27T11:04:14.236Z,35.20
2018-04-27T11:06:40.495Z,35.20
2018-04-27T11:09:06.749Z,35.10
2018-04-27T11:11:33.016Z,34.30
2018-04-27T11:13:59.286Z,34.10
2018-04-27T11:16:25.537Z,32.30
2018-04-27T11:18:51.788Z,33.20
2018-04-27T11:21:18.792Z,34.20
2018-04-27T11:23:45.068Z,32.00
2018-04-27T11:26:11.336Z,33.30
2018-04-27T11:28:37.944Z,33.90
2018-04-27T11:31:04.183Z,33.90
2018-04-27T11:33:30.429Z,34.70
2018-04-27T11:35:57.085Z,34.50
2018-04-27T11:38:23.314Z,34.50
2018-04-27T11:40:49.543Z,34.50
2018-04-27T11:43:15.861Z,34.40
2018-04-27T11:45:42.084Z,33.60
2018-04-27T11:48:08.673Z,35.40
2018-04-27T11:50:34.929Z,35.50
2018-04-27T11:53:01.159Z,35.10
2018-04-27T11:55:27.460Z,33.40
2018-04-27T11:57:53.718Z,33.60
2018-04-27T12:00:20.039Z,35.40
2018-04-27T12:02:46.299Z,33.70
2018-04-27T12:05:12.558Z,34.80
2018-04-27T12:07:38.902Z,34.10
2018-04-27T12:10:05.235Z,35.80
2018-04-27T12:12:31.495Z,34.60
2018-04-27T12:14:57.699Z,37.20
2018-04-27T12:17:23.976Z,36.90
2018-04-27T12:19:50.240Z,37.10
2018-04-27T12:22:16.512Z,35.40
2018-04-27T12:24:43.164Z,35.80
2018-04-27T12:27:09.371Z,35.80
2018-04-27T12:29:35.599Z,34.00
2018-04-27T12:32:01.902Z,37.10
2018-04-27T12:34:28.203Z,35.30
2018-04-27T12:36:54.446Z,35.10
2018-04-27T12:39:20.733Z,34.20
2018-04-27T12:41:46.969Z,34.10
2018-04-27T12:44:13.222Z,35.40
2018-04-27T12:46:39.567Z,33.50
2018-04-27T12:49:05.890Z,34.70
2018-04-27T12:51:32.864Z,33.00
2018-04-27T12:53:59.140Z,34.90
2018-04-27T12:56:25.399Z,35.30
2018-04-27T12:58:51.652Z,33.80
2018-04-27T13:01:17.908Z,34.10
2018-04-27T13:03:44.549Z,34.30
2018-04-27T13:06:11.165Z,34.30
2018-04-27T13:08:37.709Z,34.20
2018-04-27T13:11:03.978Z,34.80
2018-04-27T13:13:30.902Z,31.30
2018-04-27T13:15:57.516Z,34.70
2018-04-27T13:18:23.842Z,34.70
2018-04-27T13:20:50.046Z,35.30
2018-04-27T13:23:16.256Z,33.50
2018-04-27T13:25:42.512Z,33.40
2018-04-27T13:28:08.752Z,34.50
2018-04-27T13:30:35.416Z,34.90
2018-04-27T13:33:01.700Z,34.90
2018-04-27T13:35:27.952Z,34.10
2018-04-27T13:37:54.166Z,32.40
2018-04-27T13:40:20.489Z,33.60
2018-04-27T13:42:46.749Z,31.80
2018-04-27T13:45:12.961Z,35.00
2018-04-27T13:47:39.262Z,33.60
2018-04-27T13:50:05.476Z,32.50
2018-04-27T13:52:31.773Z,32.50
2018-04-27T13:54:58.417Z,31.50
2018-04-27T13:57:25.116Z,31.50
2018-04-27T13:59:51.321Z,31.50
2018-04-27T14:02:17.600Z,30.50
2018-04-27T14:04:43.821Z,32.60
2018-04-27T14:07:10.976Z,32.70
2018-04-27T14:09:37.732Z,31.90
2018-04-27T14:12:04.009Z,32.00
2018-04-27T14:14:30.258Z,31.30
2018-04-27T14:16:56.526Z,33.60
2018-04-27T14:19:22.772Z,33.40
2018-04-27T14:21:49.003Z,33.50
2018-04-27T14:24:15.293Z,33.50
2018-04-27T14:26:41.560Z,33.30
2018-04-27T14:29:07.813Z,32.40
2018-04-27T14:31:34.014Z,32.30
2018-04-27T14:34:00.246Z,33.10
2018-04-27T14:36:26.524Z,34.10
2018-04-27T14:38:52.747Z,34.60
2018-04-27T14:41:18.988Z,33.40
2018-04-27T14:43:45.593Z,32.10
2018-04-27T14:46:11.823Z,32.00
2018-04-27T14:48:38.067Z,33.70
2018-04-27T14:51:04.329Z,34.70
2018-04-27T14:53:30.559Z,33.90
2018-04-27T14:55:56.868Z,34.90
2018-04-27T14:58:23.185Z,32.20
2018-04-27T15:00:49.434Z,33.40
2018-04-27T15:03:16.102Z,32.90
2018-04-27T15:05:42.491Z,32.90
2018-04-27T15:08:09.111Z,33.10
2018-04-27T15:10:35.428Z,33.10
2018-04-27T15:13:01.663Z,34.10
2018-04-27T15:15:28.628Z,34.60
2018-04-27T15:17:54.876Z,34.60
2018-04-27T15:20:21.498Z,35.50
2018-04-27T15:22:54.629Z,35.40
2018-04-27T15:25:20.881Z,35.50
2018-04-27T15:27:47.167Z,34.70
2018-04-27T15:30:13.819Z,33.20
2018-04-27T15:32:40.102Z,33.20
2018-04-27T15:35:06.360Z,33.60
2018-04-27T15:37:33.003Z,34.50
2018-04-27T15:39:59.331Z,34.50
2018-04-27T15:42:25.601Z,33.80
2018-04-27T15:44:51.832Z,35.00
2018-04-27T15:47:18.126Z,32.70
2018-04-27T15:49:44.388Z,32.40
2018-04-27T15:52:10.694Z,33.40
2018-04-27T15:54:36.933Z,32.10
2018-04-27T15:57:03.174Z,33.40
2018-04-27T15:59:29.382Z,34.80
2018-04-27T16:01:55.691Z,33.80
2018-04-27T16:04:22.925Z,34.80
2018-04-27T16:06:49.228Z,34.20
2018-04-27T16:09:15.592Z,33.40
2018-04-27T16:11:41.868Z,33.30
2018-04-27T16:14:08.880Z,34.30
2018-04-27T16:16:35.550Z,33.60
2018-04-27T16:19:01.848Z,33.60
2018-04-27T16:21:28.450Z,35.00
2018-04-27T16:23:54.725Z,35.00
2018-04-27T16:26:22.959Z,35.60
2018-04-27T16:28:50.102Z,35.70
2018-04-27T16:31:16.405Z,35.40
2018-04-27T16:33:43.308Z,36.50
2018-04-27T16:36:09.545Z,36.30
2018-04-27T16:38:35.847Z,37.10
2018-04-27T16:41:02.075Z,36.70
2018-04-27T16:43:28.327Z,38.00
2018-04-27T16:45:54.579Z,39.50
2018-04-27T16:48:20.818Z,38.30
2018-04-27T16:50:47.074Z,41.20
2018-04-27T16:53:13.292Z,39.40
2018-04-27T16:55:39.549Z,39.80
2018-04-27T16:58:06.132Z,41.30
2018-04-27T17:00:32.398Z,41.40
2018-04-27T17:02:58.653Z,43.00
2018-04-27T17:05:25.381Z,44.10
2018-04-27T17:07:51.668Z,44.10
2018-04-27T17:10:17.939Z,43.50
2018-04-27T17:12:44.177Z,42.40
2018-04-27T17:15:10.782Z,43.40
2018-04-27T17:17:37.018Z,43.40
2018-04-27T17:20:03.307Z,44.60
2018-04-27T17:22:29.546Z,44.10
2018-04-27T17:24:55.797Z,45.70
2018-04-27T17:27:22.097Z,46.00
2018-04-27T17:29:49.207Z,45.70
2018-04-27T17:32:15.461Z,46.20
2018-04-27T17:34:41.751Z,45.20
2018-04-27T17:37:08.035Z,47.20
2018-04-27T17:39:34.335Z,47.80
2018-04-27T17:42:00.995Z,46.50
2018-04-27T17:44:27.960Z,46.50
2018-04-27T17:46:54.164Z,45.60
2018-04-27T17:49:20.639Z,47.20
2018-04-27T17:51:46.874Z,46.30
2018-04-27T17:54:13.116Z,48.20
2018-04-27T17:56:39.363Z,47.40
2018-04-27T17:59:05.585Z,47.50
2018-04-27T18:01:32.228Z,47.10
2018-04-27T18:03:58.843Z,48.00
2018-04-27T18:06:26.054Z,48.00
2018-04-27T18:08:52.300Z,48.70
2018-04-27T18:11:18.577Z,49.30
2018-04-27T18:13:45.171Z,50.60
2018-04-27T18:16:11.489Z,50.60
2018-04-27T18:18:37.797Z,51.00
2018-04-27T18:21:04.096Z,51.90
2018-04-27T18:23:30.741Z,53.40
2018-04-27T18:25:57.401Z,52.40
2018-04-27T18:28:23.691Z,52.40
2018-04-27T18:30:50.373Z,53.30
2018-04-27T18:33:16.614Z,53.30
2018-04-27T18:35:42.906Z,53.20
2018-04-27T18:38:09.572Z,51.60
2018-04-27T18:40:35.860Z,51.60
2018-04-27T18:43:02.155Z,53.90
2018-04-27T18:45:28.438Z,54.10
2018-04-27T18:47:54.709Z,54.20
2018-04-27T18:50:20.955Z,54.10
2018-04-27T18:52:47.237Z,54.80
2018-04-27T18:55:13.500Z,54.10
2018-04-27T18:57:39.769Z,54.30
2018-04-27T19:00:06.440Z,55.90
2018-04-27T19:02:32.710Z,56.00
2018-04-27T19:04:59.030Z,55.70
2018-04-27T19:07:26.129Z,55.80
2018-04-27T19:09:52.468Z,56.20
2018-04-27T19:12:18.837Z,55.70
2018-04-27T19:14:45.167Z,56.40
2018-04-27T19:17:13.510Z,56.60
2018-04-27T19:19:39.807Z,57.70
2018-04-27T19:22:06.055Z,56.90
2018-04-27T19:24:32.331Z,57.40
2018-04-27T19:26:58.650Z,57.50
2018-04-27T19:29:24.935Z,57.80
2018-04-27T19:31:51.221Z,57.10
2018-04-27T19:34:17.478Z,57.50
2018-04-27T19:36:43.781Z,58.10
2018-04-27T19:39:10.068Z,57.50
2018-04-27T19:41:36.336Z,57.70
2018-04-27T19:44:02.601Z,57.50
2018-04-27T19:46:29.220Z,57.70
2018-04-27T19:48:55.495Z,57.70
2018-04-27T19:51:21.774Z,57.80
2018-04-27T19:53:48.065Z,59.00
2018-04-27T19:56:14.396Z,57.90
2018-04-27T19:58:40.666Z,59.20
2018-04-27T20:01:06.959Z,59.00
2018-04-27T20:03:33.205Z,58.80
2018-04-27T20:05:59.477Z,58.90
2018-04-27T20:08:25.863Z,59.50
2018-04-27T20:10:53.335Z,59.30
2018-04-27T20:13:19.629Z,59.30
2018-04-27T20:15:47.802Z,59.00
2018-04-27T20:18:14.123Z,58.70
2018-04-27T20:20:40.825Z,60.00
2018-04-27T20:23:07.129Z,60.00
2018-04-27T20:25:33.403Z,59.30
2018-04-27T20:28:00.027Z,59.30
2018-04-27T20:30:26.739Z,60.90
2018-04-27T20:32:52.975Z,60.90
2018-04-27T20:35:19.336Z,60.30
2018-04-27T20:37:48.709Z,60.80
2018-04-27T20:40:15.829Z,60.80
2018-04-27T20:42:42.237Z,61.10
2018-04-27T20:45:08.521Z,61.30
2018-04-27T20:47:34.791Z,61.30
2018-04-27T20:50:01.156Z,62.10
2018-04-27T20:52:36.125Z,62.10
2018-04-27T20:55:18.295Z,61.50
2018-04-27T20:57:44.655Z,61.80
2018-04-27T21:00:10.943Z,62.40
2018-04-27T21:02:37.196Z,62.80
2018-04-27T21:05:04.143Z,62.30
2018-04-27T21:07:30.408Z,62.80
2018-04-27T21:09:57.072Z,63.30
2018-04-27T21:12:27.182Z,63.30
2018-04-27T21:14:53.448Z,62.60
2018-04-27T21:17:19.797Z,63.30
2018-04-27T21:19:46.083Z,62.90
2018-04-27T21:22:12.365Z,62.80
2018-04-27T21:24:38.654Z,63.80
2018-04-27T21:27:04.925Z,63.00
2018-04-27T21:29:33.152Z,64.10
2018-04-27T21:31:59.425Z,63.30
2018-04-27T21:34:25.687Z,64.10
2018-04-27T21:36:52.007Z,64.20
2018-04-27T21:39:18.299Z,63.90
2018-04-27T21:41:45.570Z,63.70
2018-04-27T21:44:13.984Z,63.90
2018-04-27T21:46:40.256Z,63.90
2018-04-27T21:49:08.440Z,63.80
2018-04-27T21:51:36.512Z,64.20
2018-04-27T21:54:08.434Z,64.50
2018-04-27T21:56:34.695Z,64.10
2018-04-27T21:59:00.934Z,63.60
2018-04-27T22:01:27.194Z,62.80
2018-04-27T22:03:59.641Z,63.20
2018-04-27T22:06:26.288Z,63.50
2018-04-27T22:08:53.802Z,63.90
2018-04-27T22:24:43.584Z,65.80
2018-04-27T22:27:09.831Z,65.60
2018-04-27T22:29:36.085Z,66.00
2018-04-27T22:32:05.745Z,65.80
2018-04-27T22:34:36.898Z,65.80
2018-04-27T22:37:03.219Z,65.80
2018-04-27T22:39:31.290Z,65.90
2018-04-27T22:42:16.192Z,66.30
2018-04-27T22:44:47.275Z,66.50
2018-04-27T22:47:14.596Z,66.20
2018-04-27T22:49:41.227Z,66.40
2018-04-27T22:52:07.505Z,66.40
2018-04-27T22:54:49.578Z,65.70
2018-04-27T22:57:24.795Z,66.00
2018-04-27T22:59:51.401Z,66.80
2018-04-27T23:02:18.537Z,66.80
2018-04-27T23:04:44.769Z,67.00
2018-04-27T23:07:11.028Z,67.70
2018-04-27T23:09:37.257Z,68.20
2018-04-27T23:12:04.334Z,68.50
2018-04-27T23:14:36.376Z,68.40
2018-04-27T23:17:08.547Z,67.70
2018-04-27T23:19:35.946Z,67.30
2018-04-27T23:22:23.263Z,67.30
2018-04-27T23:24:49.504Z,66.90
2018-04-27T23:27:15.765Z,67.40
2018-04-27T23:29:42.014Z,68.00
2018-04-27T23:32:08.633Z,68.20
2018-04-27T23:34:34.890Z,68.20
2018-04-27T23:37:01.147Z,68.20
2018-04-27T23:39:27.400Z,68.30
2018-04-27T23:41:54.522Z,68.20
2018-04-27T23:44:20.743Z,68.00
2018-04-27T23:46:47.019Z,68.50
2018-04-27T23:49:13.973Z,68.80
2018-04-27T23:51:40.592Z,68.90
2018-04-27T23:54:06.837Z,69.00
2018-04-27T23:56:33.092Z,69.00
2018-04-27T23:58:59.324Z,69.00
